sensor_id;sensor_type;location;lat;lon;timestamp;temperature;humidity
70074;DHT22;57445;51.058;3.698;2023-06-26T00:04:08;23.50;68.70
70074;DHT22;57445;51.058;3.698;2023-06-26T00:06:40;23.50;68.80
70074;DHT22;57445;51.058;3.698;2023-06-26T00:09:10;23.00;68.80
70074;DHT22;57445;51.058;3.698;2023-06-26T00:11:38;23.30;69.20
70074;DHT22;57445;51.058;3.698;2023-06-26T00:14:06;23.20;69.30
70074;DHT22;57445;51.058;3.698;2023-06-26T00:16:34;23.20;69.50
70074;DHT22;57445;51.058;3.698;2023-06-26T00:19:03;23.20;70.20
70074;DHT22;57445;51.058;3.698;2023-06-26T00:21:35;23.00;70.00
70074;DHT22;57445;51.058;3.698;2023-06-26T00:24:21;22.90;70.50
70074;DHT22;57445;51.058;3.698;2023-06-26T00:26:49;22.90;70.60
70074;DHT22;57445;51.058;3.698;2023-06-26T00:29:17;22.90;70.90
70074;DHT22;57445;51.058;3.698;2023-06-26T00:31:45;23.00;70.80
70074;DHT22;57445;51.058;3.698;2023-06-26T00:34:13;22.70;70.70
70074;DHT22;57445;51.058;3.698;2023-06-26T00:36:45;23.10;71.00
70074;DHT22;57445;51.058;3.698;2023-06-26T00:39:15;23.00;71.00
70074;DHT22;57445;51.058;3.698;2023-06-26T00:41:45;22.90;71.20
70074;DHT22;57445;51.058;3.698;2023-06-26T00:44:14;22.90;71.60
70074;DHT22;57445;51.058;3.698;2023-06-26T00:46:42;22.80;72.20
70074;DHT22;57445;51.058;3.698;2023-06-26T00:49:14;22.80;72.30
70074;DHT22;57445;51.058;3.698;2023-06-26T00:51:41;22.80;72.50
70074;DHT22;57445;51.058;3.698;2023-06-26T00:54:10;22.80;73.00
70074;DHT22;57445;51.058;3.698;2023-06-26T00:56:38;22.70;73.40
70074;DHT22;57445;51.058;3.698;2023-06-26T00:59:07;22.80;73.30
70074;DHT22;57445;51.058;3.698;2023-06-26T01:01:36;22.80;73.50
70074;DHT22;57445;51.058;3.698;2023-06-26T01:04:04;22.80;73.90
70074;DHT22;57445;51.058;3.698;2023-06-26T01:06:33;22.80;74.20
70074;DHT22;57445;51.058;3.698;2023-06-26T01:09:03;22.80;74.40
70074;DHT22;57445;51.058;3.698;2023-06-26T01:11:32;22.80;74.60
70074;DHT22;57445;51.058;3.698;2023-06-26T01:14:00;22.80;74.80
70074;DHT22;57445;51.058;3.698;2023-06-26T01:16:30;22.70;75.00
70074;DHT22;57445;51.058;3.698;2023-06-26T01:18:58;22.60;75.60
70074;DHT22;57445;51.058;3.698;2023-06-26T01:21:27;22.50;76.00
70074;DHT22;57445;51.058;3.698;2023-06-26T01:24:04;22.50;76.20
70074;DHT22;57445;51.058;3.698;2023-06-26T01:26:34;22.50;76.50
70074;DHT22;57445;51.058;3.698;2023-06-26T01:29:03;22.40;77.30
70074;DHT22;57445;51.058;3.698;2023-06-26T01:31:35;22.40;77.90
70074;DHT22;57445;51.058;3.698;2023-06-26T01:34:04;22.30;77.60
70074;DHT22;57445;51.058;3.698;2023-06-26T01:36:32;22.60;78.30
70074;DHT22;57445;51.058;3.698;2023-06-26T01:39:00;22.10;78.90
70074;DHT22;57445;51.058;3.698;2023-06-26T01:41:28;22.40;79.40
70074;DHT22;57445;51.058;3.698;2023-06-26T01:44:03;22.10;79.50
70074;DHT22;57445;51.058;3.698;2023-06-26T01:46:36;22.00;79.40
70074;DHT22;57445;51.058;3.698;2023-06-26T01:49:09;21.80;79.60
70074;DHT22;57445;51.058;3.698;2023-06-26T01:51:41;22.00;80.20
70074;DHT22;57445;51.058;3.698;2023-06-26T01:54:12;21.80;80.80
70074;DHT22;57445;51.058;3.698;2023-06-26T01:56:41;21.70;81.30
70074;DHT22;57445;51.058;3.698;2023-06-26T01:59:11;21.80;81.80
70074;DHT22;57445;51.058;3.698;2023-06-26T02:01:41;21.70;81.90
70074;DHT22;57445;51.058;3.698;2023-06-26T02:04:09;21.70;82.70
70074;DHT22;57445;51.058;3.698;2023-06-26T02:06:36;21.50;83.50
70074;DHT22;57445;51.058;3.698;2023-06-26T02:09:04;21.40;83.90
70074;DHT22;57445;51.058;3.698;2023-06-26T02:11:32;21.40;84.30
70074;DHT22;57445;51.058;3.698;2023-06-26T02:13:59;21.50;85.00
70074;DHT22;57445;51.058;3.698;2023-06-26T02:16:29;21.40;84.70
70074;DHT22;57445;51.058;3.698;2023-06-26T02:18:57;21.40;85.20
70074;DHT22;57445;51.058;3.698;2023-06-26T02:21:25;21.30;86.20
70074;DHT22;57445;51.058;3.698;2023-06-26T02:23:53;21.40;87.00
70074;DHT22;57445;51.058;3.698;2023-06-26T02:26:21;21.10;87.30
70074;DHT22;57445;51.058;3.698;2023-06-26T02:28:49;20.70;87.30
70074;DHT22;57445;51.058;3.698;2023-06-26T02:31:24;21.10;88.10
70074;DHT22;57445;51.058;3.698;2023-06-26T02:33:54;20.90;88.30
70074;DHT22;57445;51.058;3.698;2023-06-26T02:36:21;20.90;88.40
70074;DHT22;57445;51.058;3.698;2023-06-26T02:38:49;21.00;89.20
70074;DHT22;57445;51.058;3.698;2023-06-26T02:41:17;20.80;89.90
70074;DHT22;57445;51.058;3.698;2023-06-26T02:43:45;20.90;90.00
70074;DHT22;57445;51.058;3.698;2023-06-26T02:46:13;20.90;89.80
70074;DHT22;57445;51.058;3.698;2023-06-26T02:48:41;21.00;90.10
70074;DHT22;57445;51.058;3.698;2023-06-26T02:51:17;20.90;90.10
70074;DHT22;57445;51.058;3.698;2023-06-26T02:53:48;20.90;90.10
70074;DHT22;57445;51.058;3.698;2023-06-26T02:56:17;21.10;90.20
70074;DHT22;57445;51.058;3.698;2023-06-26T02:58:53;20.80;90.10
70074;DHT22;57445;51.058;3.698;2023-06-26T03:01:21;20.70;90.40
70074;DHT22;57445;51.058;3.698;2023-06-26T03:04:00;20.70;90.70
70074;DHT22;57445;51.058;3.698;2023-06-26T03:06:29;20.60;90.60
70074;DHT22;57445;51.058;3.698;2023-06-26T03:08:58;20.60;90.60
70074;DHT22;57445;51.058;3.698;2023-06-26T03:11:26;20.60;90.70
70074;DHT22;57445;51.058;3.698;2023-06-26T03:13:54;20.70;90.90
70074;DHT22;57445;51.058;3.698;2023-06-26T03:16:22;20.40;91.00
70074;DHT22;57445;51.058;3.698;2023-06-26T03:18:51;20.40;91.20
70074;DHT22;57445;51.058;3.698;2023-06-26T03:21:19;20.00;91.10
70074;DHT22;57445;51.058;3.698;2023-06-26T03:23:49;20.20;91.40
70074;DHT22;57445;51.058;3.698;2023-06-26T03:26:17;20.20;91.30
70074;DHT22;57445;51.058;3.698;2023-06-26T03:28:54;20.10;91.50
70074;DHT22;57445;51.058;3.698;2023-06-26T03:31:25;19.70;91.50
70074;DHT22;57445;51.058;3.698;2023-06-26T03:36:36;20.00;91.60
70074;DHT22;57445;51.058;3.698;2023-06-26T03:39:06;20.10;91.60
70074;DHT22;57445;51.058;3.698;2023-06-26T03:41:34;20.00;91.50
70074;DHT22;57445;51.058;3.698;2023-06-26T03:44:02;19.90;91.50
70074;DHT22;57445;51.058;3.698;2023-06-26T03:46:30;19.90;91.60
70074;DHT22;57445;51.058;3.698;2023-06-26T03:48:58;19.90;91.70
70074;DHT22;57445;51.058;3.698;2023-06-26T03:51:26;19.90;91.60
70074;DHT22;57445;51.058;3.698;2023-06-26T03:53:54;19.80;91.70
70074;DHT22;57445;51.058;3.698;2023-06-26T03:56:23;19.90;91.70
70074;DHT22;57445;51.058;3.698;2023-06-26T03:58:57;19.90;91.50
70074;DHT22;57445;51.058;3.698;2023-06-26T04:01:26;19.90;91.40
70074;DHT22;57445;51.058;3.698;2023-06-26T04:03:55;19.80;91.30
70074;DHT22;57445;51.058;3.698;2023-06-26T04:06:23;19.80;91.50
70074;DHT22;57445;51.058;3.698;2023-06-26T04:08:51;19.90;91.20
70074;DHT22;57445;51.058;3.698;2023-06-26T04:11:19;20.00;91.20
70074;DHT22;57445;51.058;3.698;2023-06-26T04:13:48;19.80;91.00
70074;DHT22;57445;51.058;3.698;2023-06-26T04:16:16;19.70;91.20
70074;DHT22;57445;51.058;3.698;2023-06-26T04:18:43;19.70;91.30
70074;DHT22;57445;51.058;3.698;2023-06-26T04:21:20;19.70;91.40
70074;DHT22;57445;51.058;3.698;2023-06-26T04:23:50;19.80;91.10
70074;DHT22;57445;51.058;3.698;2023-06-26T04:26:18;19.70;91.20
70074;DHT22;57445;51.058;3.698;2023-06-26T04:28:55;19.60;91.10
70074;DHT22;57445;51.058;3.698;2023-06-26T04:31:23;19.60;91.40
70074;DHT22;57445;51.058;3.698;2023-06-26T04:33:50;19.80;91.00
70074;DHT22;57445;51.058;3.698;2023-06-26T04:36:21;19.80;90.60
70074;DHT22;57445;51.058;3.698;2023-06-26T04:38:48;19.90;90.50
70074;DHT22;57445;51.058;3.698;2023-06-26T04:41:16;19.90;90.30
70074;DHT22;57445;51.058;3.698;2023-06-26T04:43:52;19.80;90.20
70074;DHT22;57445;51.058;3.698;2023-06-26T04:46:23;19.80;90.10
70074;DHT22;57445;51.058;3.698;2023-06-26T04:48:57;19.80;90.10
70074;DHT22;57445;51.058;3.698;2023-06-26T04:51:25;19.80;90.00
70074;DHT22;57445;51.058;3.698;2023-06-26T04:53:55;20.00;90.10
70074;DHT22;57445;51.058;3.698;2023-06-26T04:56:22;19.70;90.30
70074;DHT22;57445;51.058;3.698;2023-06-26T04:58:50;19.70;90.10
70074;DHT22;57445;51.058;3.698;2023-06-26T05:01:17;19.60;90.00
70074;DHT22;57445;51.058;3.698;2023-06-26T05:03:46;19.70;90.30
70074;DHT22;57445;51.058;3.698;2023-06-26T05:06:14;19.60;90.20
70074;DHT22;57445;51.058;3.698;2023-06-26T05:08:42;19.70;90.10
70074;DHT22;57445;51.058;3.698;2023-06-26T05:11:10;19.70;90.00
70074;DHT22;57445;51.058;3.698;2023-06-26T05:13:38;19.70;90.00
70074;DHT22;57445;51.058;3.698;2023-06-26T05:16:08;20.10;90.00
70074;DHT22;57445;51.058;3.698;2023-06-26T05:18:37;19.70;89.80
70074;DHT22;57445;51.058;3.698;2023-06-26T05:21:07;19.80;89.60
70074;DHT22;57445;51.058;3.698;2023-06-26T05:23:36;19.90;88.90
70074;DHT22;57445;51.058;3.698;2023-06-26T05:26:05;20.10;87.90
70074;DHT22;57445;51.058;3.698;2023-06-26T05:28:33;20.40;87.40
70074;DHT22;57445;51.058;3.698;2023-06-26T05:31:02;20.80;86.20
70074;DHT22;57445;51.058;3.698;2023-06-26T05:33:31;22.00;83.70
70074;DHT22;57445;51.058;3.698;2023-06-26T05:36:04;23.40;78.80
70074;DHT22;57445;51.058;3.698;2023-06-26T05:38:41;23.80;75.20
70074;DHT22;57445;51.058;3.698;2023-06-26T05:41:18;24.70;73.90
70074;DHT22;57445;51.058;3.698;2023-06-26T05:43:47;25.70;71.90
70074;DHT22;57445;51.058;3.698;2023-06-26T05:46:15;26.30;68.10
70074;DHT22;57445;51.058;3.698;2023-06-26T05:51:28;26.80;67.80
70074;DHT22;57445;51.058;3.698;2023-06-26T05:53:57;27.80;65.80
70074;DHT22;57445;51.058;3.698;2023-06-26T05:56:26;27.90;63.20
70074;DHT22;57445;51.058;3.698;2023-06-26T05:58:55;27.60;63.80
70074;DHT22;57445;51.058;3.698;2023-06-26T06:01:24;28.10;62.00
70074;DHT22;57445;51.058;3.698;2023-06-26T06:03:51;27.90;62.40
70074;DHT22;57445;51.058;3.698;2023-06-26T06:06:20;27.80;63.00
70074;DHT22;57445;51.058;3.698;2023-06-26T06:08:48;28.10;63.10
70074;DHT22;57445;51.058;3.698;2023-06-26T06:11:17;28.50;61.60
70074;DHT22;57445;51.058;3.698;2023-06-26T06:13:46;28.90;61.60
70074;DHT22;57445;51.058;3.698;2023-06-26T06:16:14;29.30;59.40
70074;DHT22;57445;51.058;3.698;2023-06-26T06:18:42;29.10;59.30
70074;DHT22;57445;51.058;3.698;2023-06-26T06:21:09;28.30;60.40
70074;DHT22;57445;51.058;3.698;2023-06-26T06:23:37;27.80;62.30
70074;DHT22;57445;51.058;3.698;2023-06-26T06:26:05;27.80;61.50
70074;DHT22;57445;51.058;3.698;2023-06-26T06:28:34;25.80;64.50
70074;DHT22;57445;51.058;3.698;2023-06-26T06:31:02;25.00;68.50
70074;DHT22;57445;51.058;3.698;2023-06-26T06:33:30;25.70;66.20
70074;DHT22;57445;51.058;3.698;2023-06-26T06:35:57;25.70;66.50
70074;DHT22;57445;51.058;3.698;2023-06-26T06:38:25;26.20;65.30
70074;DHT22;57445;51.058;3.698;2023-06-26T06:40:52;26.90;62.80
70074;DHT22;57445;51.058;3.698;2023-06-26T06:43:20;26.40;61.80
70074;DHT22;57445;51.058;3.698;2023-06-26T06:45:48;25.90;64.00
70074;DHT22;57445;51.058;3.698;2023-06-26T06:48:16;25.10;65.30
70074;DHT22;57445;51.058;3.698;2023-06-26T06:50:44;25.60;65.10
70074;DHT22;57445;51.058;3.698;2023-06-26T06:53:11;25.50;64.00
70074;DHT22;57445;51.058;3.698;2023-06-26T06:55:39;24.50;66.40
70074;DHT22;57445;51.058;3.698;2023-06-26T06:58:06;24.10;67.60
70074;DHT22;57445;51.058;3.698;2023-06-26T07:00:34;23.60;68.70
70074;DHT22;57445;51.058;3.698;2023-06-26T07:03:03;23.90;69.50
70074;DHT22;57445;51.058;3.698;2023-06-26T07:05:31;24.50;67.60
70074;DHT22;57445;51.058;3.698;2023-06-26T07:07:59;23.50;68.40
70074;DHT22;57445;51.058;3.698;2023-06-26T07:10:27;23.20;70.10
70074;DHT22;57445;51.058;3.698;2023-06-26T07:12:57;22.50;71.00
70074;DHT22;57445;51.058;3.698;2023-06-26T07:15:31;22.30;72.10
70074;DHT22;57445;51.058;3.698;2023-06-26T07:18:07;22.40;71.20
70074;DHT22;57445;51.058;3.698;2023-06-26T07:20:34;22.60;72.20
70074;DHT22;57445;51.058;3.698;2023-06-26T07:23:10;22.80;71.60
70074;DHT22;57445;51.058;3.698;2023-06-26T07:25:38;22.90;70.90
70074;DHT22;57445;51.058;3.698;2023-06-26T07:28:09;22.60;71.40
70074;DHT22;57445;51.058;3.698;2023-06-26T07:30:37;22.00;73.30
70074;DHT22;57445;51.058;3.698;2023-06-26T07:33:04;21.70;73.80
70074;DHT22;57445;51.058;3.698;2023-06-26T07:35:33;21.80;73.60
70074;DHT22;57445;51.058;3.698;2023-06-26T07:38:00;21.70;72.60
70074;DHT22;57445;51.058;3.698;2023-06-26T07:40:28;22.00;72.10
70074;DHT22;57445;51.058;3.698;2023-06-26T07:42:55;21.50;73.30
70074;DHT22;57445;51.058;3.698;2023-06-26T07:45:24;21.60;72.50
70074;DHT22;57445;51.058;3.698;2023-06-26T07:47:51;21.50;73.30
70074;DHT22;57445;51.058;3.698;2023-06-26T07:50:19;21.60;72.60
70074;DHT22;57445;51.058;3.698;2023-06-26T07:52:50;21.60;73.20
70074;DHT22;57445;51.058;3.698;2023-06-26T07:55:19;21.60;74.00
70074;DHT22;57445;51.058;3.698;2023-06-26T07:57:46;21.70;73.40
70074;DHT22;57445;51.058;3.698;2023-06-26T08:00:14;21.70;72.40
70074;DHT22;57445;51.058;3.698;2023-06-26T08:02:42;21.80;71.90
70074;DHT22;57445;51.058;3.698;2023-06-26T08:05:09;22.00;71.50
70074;DHT22;57445;51.058;3.698;2023-06-26T08:07:37;22.20;72.20
70074;DHT22;57445;51.058;3.698;2023-06-26T08:10:07;22.20;72.10
70074;DHT22;57445;51.058;3.698;2023-06-26T08:12:33;22.30;71.70
70074;DHT22;57445;51.058;3.698;2023-06-26T08:15:03;22.50;69.70
70074;DHT22;57445;51.058;3.698;2023-06-26T08:17:31;22.20;70.10
70074;DHT22;57445;51.058;3.698;2023-06-26T08:19:58;22.00;70.10
70074;DHT22;57445;51.058;3.698;2023-06-26T08:22:26;22.10;70.60
70074;DHT22;57445;51.058;3.698;2023-06-26T08:24:53;22.20;70.50
70074;DHT22;57445;51.058;3.698;2023-06-26T08:27:23;22.20;71.40
70074;DHT22;57445;51.058;3.698;2023-06-26T08:29:50;22.20;70.90
70074;DHT22;57445;51.058;3.698;2023-06-26T08:32:18;22.50;68.90
70074;DHT22;57445;51.058;3.698;2023-06-26T08:34:45;22.50;68.90
70074;DHT22;57445;51.058;3.698;2023-06-26T08:37:13;22.60;68.80
70074;DHT22;57445;51.058;3.698;2023-06-26T08:39:40;22.70;68.60
70074;DHT22;57445;51.058;3.698;2023-06-26T08:42:08;22.80;68.20
70074;DHT22;57445;51.058;3.698;2023-06-26T08:44:37;22.80;68.00
70074;DHT22;57445;51.058;3.698;2023-06-26T08:47:04;22.90;66.20
70074;DHT22;57445;51.058;3.698;2023-06-26T08:49:34;23.00;66.80
70074;DHT22;57445;51.058;3.698;2023-06-26T08:52:06;22.90;66.00
70074;DHT22;57445;51.058;3.698;2023-06-26T08:54:39;22.60;67.70
70074;DHT22;57445;51.058;3.698;2023-06-26T08:57:07;22.40;67.00
70074;DHT22;57445;51.058;3.698;2023-06-26T08:59:36;22.60;67.50
70074;DHT22;57445;51.058;3.698;2023-06-26T09:02:04;22.90;67.30
70074;DHT22;57445;51.058;3.698;2023-06-26T09:04:31;22.90;66.00
70074;DHT22;57445;51.058;3.698;2023-06-26T09:06:59;22.60;66.60
70074;DHT22;57445;51.058;3.698;2023-06-26T09:09:26;22.70;66.70
70074;DHT22;57445;51.058;3.698;2023-06-26T09:11:54;23.00;66.50
70074;DHT22;57445;51.058;3.698;2023-06-26T09:14:21;23.30;65.70
70074;DHT22;57445;51.058;3.698;2023-06-26T09:16:50;23.30;62.80
70074;DHT22;57445;51.058;3.698;2023-06-26T09:19:18;23.40;62.20
70074;DHT22;57445;51.058;3.698;2023-06-26T09:21:45;23.10;65.40
70074;DHT22;57445;51.058;3.698;2023-06-26T09:24:16;23.00;64.30
70074;DHT22;57445;51.058;3.698;2023-06-26T09:26:43;22.80;64.50
70074;DHT22;57445;51.058;3.698;2023-06-26T09:29:13;23.00;65.00
70074;DHT22;57445;51.058;3.698;2023-06-26T09:31:40;22.70;65.50
70074;DHT22;57445;51.058;3.698;2023-06-26T09:34:10;22.70;65.50
70074;DHT22;57445;51.058;3.698;2023-06-26T09:36:37;22.60;64.50
70074;DHT22;57445;51.058;3.698;2023-06-26T09:39:07;23.00;64.00
70074;DHT22;57445;51.058;3.698;2023-06-26T09:41:37;23.30;63.50
70074;DHT22;57445;51.058;3.698;2023-06-26T09:44:05;23.50;63.10
70074;DHT22;57445;51.058;3.698;2023-06-26T09:46:33;23.70;61.70
70074;DHT22;57445;51.058;3.698;2023-06-26T09:49:01;23.80;61.90
70074;DHT22;57445;51.058;3.698;2023-06-26T09:51:32;24.00;61.00
70074;DHT22;57445;51.058;3.698;2023-06-26T09:53:59;24.20;59.10
70074;DHT22;57445;51.058;3.698;2023-06-26T09:56:27;24.20;60.20
70074;DHT22;57445;51.058;3.698;2023-06-26T09:58:55;24.50;60.10
70074;DHT22;57445;51.058;3.698;2023-06-26T10:01:23;24.90;59.40
70074;DHT22;57445;51.058;3.698;2023-06-26T10:03:50;24.90;58.40
70074;DHT22;57445;51.058;3.698;2023-06-26T10:06:19;24.80;59.50
70074;DHT22;57445;51.058;3.698;2023-06-26T10:08:48;25.20;58.20
70074;DHT22;57445;51.058;3.698;2023-06-26T10:11:16;24.50;59.80
70074;DHT22;57445;51.058;3.698;2023-06-26T10:13:47;24.10;59.70
70074;DHT22;57445;51.058;3.698;2023-06-26T10:16:17;23.80;60.50
70074;DHT22;57445;51.058;3.698;2023-06-26T10:18:46;23.70;60.50
70074;DHT22;57445;51.058;3.698;2023-06-26T10:21:13;23.80;60.60
70074;DHT22;57445;51.058;3.698;2023-06-26T10:23:41;24.00;60.10
70074;DHT22;57445;51.058;3.698;2023-06-26T10:26:12;24.30;59.80
70074;DHT22;57445;51.058;3.698;2023-06-26T10:28:41;24.50;60.00
70074;DHT22;57445;51.058;3.698;2023-06-26T10:31:09;24.50;56.10
70074;DHT22;57445;51.058;3.698;2023-06-26T10:33:38;24.70;56.60
70074;DHT22;57445;51.058;3.698;2023-06-26T10:36:13;24.80;57.00
70074;DHT22;57445;51.058;3.698;2023-06-26T10:38:51;25.10;57.30
70074;DHT22;57445;51.058;3.698;2023-06-26T10:41:23;25.30;57.00
70074;DHT22;57445;51.058;3.698;2023-06-26T10:43:51;25.70;56.00
70074;DHT22;57445;51.058;3.698;2023-06-26T10:46:19;25.70;54.50
70074;DHT22;57445;51.058;3.698;2023-06-26T10:48:56;25.10;54.00
70074;DHT22;57445;51.058;3.698;2023-06-26T10:51:25;25.10;54.70
70074;DHT22;57445;51.058;3.698;2023-06-26T10:53:55;25.40;54.00
70074;DHT22;57445;51.058;3.698;2023-06-26T10:59:12;25.10;54.10
70074;DHT22;57445;51.058;3.698;2023-06-26T11:01:40;24.90;55.10
70074;DHT22;57445;51.058;3.698;2023-06-26T11:04:08;24.90;54.20
70074;DHT22;57445;51.058;3.698;2023-06-26T11:06:37;24.80;54.30
70074;DHT22;57445;51.058;3.698;2023-06-26T11:09:06;24.80;55.10
70074;DHT22;57445;51.058;3.698;2023-06-26T11:14:33;24.80;55.80
70074;DHT22;57445;51.058;3.698;2023-06-26T11:17:03;24.30;55.00
70074;DHT22;57445;51.058;3.698;2023-06-26T11:19:31;23.90;56.50
70074;DHT22;57445;51.058;3.698;2023-06-26T11:21:59;23.70;57.40
70074;DHT22;57445;51.058;3.698;2023-06-26T11:24:27;23.80;56.30
70074;DHT22;57445;51.058;3.698;2023-06-26T11:26:55;23.80;55.00
70074;DHT22;57445;51.058;3.698;2023-06-26T11:29:26;23.80;55.40
70074;DHT22;57445;51.058;3.698;2023-06-26T11:31:59;24.00;56.90
70074;DHT22;57445;51.058;3.698;2023-06-26T11:34:29;24.40;54.30
70074;DHT22;57445;51.058;3.698;2023-06-26T11:36:57;24.70;52.60
70074;DHT22;57445;51.058;3.698;2023-06-26T11:39:24;24.70;54.30
70074;DHT22;57445;51.058;3.698;2023-06-26T11:41:52;24.60;53.50
70074;DHT22;57445;51.058;3.698;2023-06-26T11:44:20;24.30;52.80
70074;DHT22;57445;51.058;3.698;2023-06-26T11:46:51;24.40;53.80
70074;DHT22;57445;51.058;3.698;2023-06-26T11:49:22;24.30;53.50
70074;DHT22;57445;51.058;3.698;2023-06-26T11:51:53;24.50;54.30
70074;DHT22;57445;51.058;3.698;2023-06-26T11:54:26;24.30;53.90
70074;DHT22;57445;51.058;3.698;2023-06-26T11:56:54;24.60;54.10
70074;DHT22;57445;51.058;3.698;2023-06-26T11:59:22;24.80;53.70
70074;DHT22;57445;51.058;3.698;2023-06-26T12:01:50;24.60;55.00
70074;DHT22;57445;51.058;3.698;2023-06-26T12:04:18;24.90;54.10
70074;DHT22;57445;51.058;3.698;2023-06-26T12:06:48;25.00;53.70
70074;DHT22;57445;51.058;3.698;2023-06-26T12:09:17;25.30;53.10
70074;DHT22;57445;51.058;3.698;2023-06-26T12:11:44;25.30;52.50
70074;DHT22;57445;51.058;3.698;2023-06-26T12:14:14;24.70;54.30
70074;DHT22;57445;51.058;3.698;2023-06-26T12:16:42;24.70;54.80
70074;DHT22;57445;51.058;3.698;2023-06-26T12:19:10;24.60;54.60
70074;DHT22;57445;51.058;3.698;2023-06-26T12:21:48;24.70;54.80
70074;DHT22;57445;51.058;3.698;2023-06-26T12:24:19;25.00;54.70
70074;DHT22;57445;51.058;3.698;2023-06-26T12:26:47;25.20;54.00
70074;DHT22;57445;51.058;3.698;2023-06-26T12:29:17;25.10;53.80
70074;DHT22;57445;51.058;3.698;2023-06-26T12:31:45;25.30;53.10
70074;DHT22;57445;51.058;3.698;2023-06-26T12:34:13;25.60;52.90
70074;DHT22;57445;51.058;3.698;2023-06-26T12:36:44;25.50;52.10
70074;DHT22;57445;51.058;3.698;2023-06-26T12:39:15;25.50;53.70
70074;DHT22;57445;51.058;3.698;2023-06-26T12:41:46;24.80;54.70
70074;DHT22;57445;51.058;3.698;2023-06-26T12:44:20;24.60;55.20
70074;DHT22;57445;51.058;3.698;2023-06-26T12:46:48;24.20;56.30
70074;DHT22;57445;51.058;3.698;2023-06-26T12:49:16;24.40;56.70
70074;DHT22;57445;51.058;3.698;2023-06-26T12:51:44;24.40;56.40
70074;DHT22;57445;51.058;3.698;2023-06-26T12:54:11;24.50;55.90
70074;DHT22;57445;51.058;3.698;2023-06-26T12:56:40;24.40;55.60
70074;DHT22;57445;51.058;3.698;2023-06-26T12:59:08;24.00;56.00
70074;DHT22;57445;51.058;3.698;2023-06-26T13:01:35;24.10;56.10
70074;DHT22;57445;51.058;3.698;2023-06-26T13:04:03;24.30;55.50
70074;DHT22;57445;51.058;3.698;2023-06-26T13:06:30;24.40;54.70
70074;DHT22;57445;51.058;3.698;2023-06-26T13:08:58;24.60;54.60
70074;DHT22;57445;51.058;3.698;2023-06-26T13:11:25;24.80;54.50
70074;DHT22;57445;51.058;3.698;2023-06-26T13:13:54;24.70;55.00
70074;DHT22;57445;51.058;3.698;2023-06-26T13:16:21;24.50;54.10
70074;DHT22;57445;51.058;3.698;2023-06-26T13:18:49;24.30;54.60
70074;DHT22;57445;51.058;3.698;2023-06-26T13:21:16;24.10;55.70
70074;DHT22;57445;51.058;3.698;2023-06-26T13:23:44;24.00;55.30
70074;DHT22;57445;51.058;3.698;2023-06-26T13:26:11;24.10;55.10
70074;DHT22;57445;51.058;3.698;2023-06-26T13:28:39;23.90;55.00
70074;DHT22;57445;51.058;3.698;2023-06-26T13:31:08;24.10;55.00
70074;DHT22;57445;51.058;3.698;2023-06-26T13:33:35;24.00;54.90
70074;DHT22;57445;51.058;3.698;2023-06-26T13:36:03;23.90;55.10
70074;DHT22;57445;51.058;3.698;2023-06-26T13:38:32;23.90;55.40
70074;DHT22;57445;51.058;3.698;2023-06-26T13:41:00;24.00;54.70
70074;DHT22;57445;51.058;3.698;2023-06-26T13:43:27;24.60;54.30
70074;DHT22;57445;51.058;3.698;2023-06-26T13:45:55;24.90;52.60
70074;DHT22;57445;51.058;3.698;2023-06-26T13:48:24;24.90;52.70
70074;DHT22;57445;51.058;3.698;2023-06-26T13:50:52;24.90;50.10
70074;DHT22;57445;51.058;3.698;2023-06-26T13:53:20;24.70;49.40
70074;DHT22;57445;51.058;3.698;2023-06-26T13:55:47;25.10;49.50
70074;DHT22;57445;51.058;3.698;2023-06-26T13:58:16;25.20;50.90
70074;DHT22;57445;51.058;3.698;2023-06-26T14:00:45;24.90;50.60
70074;DHT22;57445;51.058;3.698;2023-06-26T14:03:12;24.80;50.30
70074;DHT22;57445;51.058;3.698;2023-06-26T14:05:42;24.70;49.50
70074;DHT22;57445;51.058;3.698;2023-06-26T14:08:10;24.50;50.60
70074;DHT22;57445;51.058;3.698;2023-06-26T14:10:37;24.60;51.40
70074;DHT22;57445;51.058;3.698;2023-06-26T14:13:04;24.60;50.70
70074;DHT22;57445;51.058;3.698;2023-06-26T14:15:32;24.90;52.30
70074;DHT22;57445;51.058;3.698;2023-06-26T14:18:03;25.20;51.10
70074;DHT22;57445;51.058;3.698;2023-06-26T14:20:31;25.60;50.70
70074;DHT22;57445;51.058;3.698;2023-06-26T14:23:01;25.70;51.50
70074;DHT22;57445;51.058;3.698;2023-06-26T14:25:29;25.60;52.60
70074;DHT22;57445;51.058;3.698;2023-06-26T14:27:56;25.50;53.40
70074;DHT22;57445;51.058;3.698;2023-06-26T14:30:24;25.30;53.00
70074;DHT22;57445;51.058;3.698;2023-06-26T14:32:51;25.50;54.70
70074;DHT22;57445;51.058;3.698;2023-06-26T14:35:19;26.00;54.20
70074;DHT22;57445;51.058;3.698;2023-06-26T14:37:47;25.80;55.10
70074;DHT22;57445;51.058;3.698;2023-06-26T14:40:16;25.50;56.70
70074;DHT22;57445;51.058;3.698;2023-06-26T14:42:44;25.40;56.90
70074;DHT22;57445;51.058;3.698;2023-06-26T14:45:11;25.70;56.50
70074;DHT22;57445;51.058;3.698;2023-06-26T14:47:39;26.00;56.10
70074;DHT22;57445;51.058;3.698;2023-06-26T14:50:07;26.30;55.10
70074;DHT22;57445;51.058;3.698;2023-06-26T14:52:35;25.90;55.50
70074;DHT22;57445;51.058;3.698;2023-06-26T14:55:02;25.70;55.50
70074;DHT22;57445;51.058;3.698;2023-06-26T14:57:31;25.60;54.80
70074;DHT22;57445;51.058;3.698;2023-06-26T14:59:59;25.50;55.80
70074;DHT22;57445;51.058;3.698;2023-06-26T15:02:27;25.00;56.70
70074;DHT22;57445;51.058;3.698;2023-06-26T15:04:54;24.90;57.40
70074;DHT22;57445;51.058;3.698;2023-06-26T15:07:22;25.20;55.20
70074;DHT22;57445;51.058;3.698;2023-06-26T15:09:49;25.30;54.30
70074;DHT22;57445;51.058;3.698;2023-06-26T15:12:17;25.10;54.30
70074;DHT22;57445;51.058;3.698;2023-06-26T15:14:46;25.50;54.60
70074;DHT22;57445;51.058;3.698;2023-06-26T15:17:13;25.60;54.20
70074;DHT22;57445;51.058;3.698;2023-06-26T15:19:41;25.60;54.60
70074;DHT22;57445;51.058;3.698;2023-06-26T15:22:09;25.60;53.60
70074;DHT22;57445;51.058;3.698;2023-06-26T15:24:38;25.20;54.70
70074;DHT22;57445;51.058;3.698;2023-06-26T15:27:05;25.20;55.10
70074;DHT22;57445;51.058;3.698;2023-06-26T15:29:33;25.10;55.20
70074;DHT22;57445;51.058;3.698;2023-06-26T15:32:02;25.30;54.50
70074;DHT22;57445;51.058;3.698;2023-06-26T15:34:33;25.70;54.00
70074;DHT22;57445;51.058;3.698;2023-06-26T15:37:00;25.70;54.00
70074;DHT22;57445;51.058;3.698;2023-06-26T15:39:28;25.40;54.40
70074;DHT22;57445;51.058;3.698;2023-06-26T15:41:55;24.90;54.60
70074;DHT22;57445;51.058;3.698;2023-06-26T15:44:23;24.60;56.60
70074;DHT22;57445;51.058;3.698;2023-06-26T15:46:50;24.60;57.40
70074;DHT22;57445;51.058;3.698;2023-06-26T15:49:20;24.40;57.20
70074;DHT22;57445;51.058;3.698;2023-06-26T15:51:48;24.40;58.00
70074;DHT22;57445;51.058;3.698;2023-06-26T15:54:16;24.10;59.20